Time;durP1;ratioP1;P1;durP2;ratioP2;P2;SDS_P1;SDS_P2;PMS_P1;PMS_P2;Temp;Humidity;BMP_temperature;BMP_pressure;BME280_temperature;BME280_humidity;BME280_pressure;Samples;Min_cycle;Max_cycle;Signal;HPM_P1;HPM_P2
2023/03/15 00:00:14;;;;;;;59.08;48.97;;;;;;;;;;5058109;28;20179;-53
2023/03/15 00:02:40;;;;;;;57.50;47.17;;;;;;;;;;5050385;28;20198;-53
2023/03/15 00:05:06;;;;;;;53.72;45.58;;;;;;;;;;5055391;28;20187;-53
2023/03/15 00:07:32;;;;;;;57.25;47.75;;;;;;;;;;5043766;28;20464;-53
2023/03/15 00:09:58;;;;;;;52.83;45.60;;;;;;;;;;5049282;28;20184;-53
2023/03/15 00:12:24;;;;;;;51.55;43.20;;;;;;;;;;5057905;28;20593;-52
2023/03/15 00:14:50;;;;;;;51.55;42.50;;;;;;;;;;5037624;28;20191;-53
2023/03/15 00:17:16;;;;;;;50.50;41.65;;;;;;;;;;5056131;28;20179;-53
2023/03/15 00:19:42;;;;;;;50.20;42.28;;;;;;;;;;5056802;28;20187;-53
2023/03/15 00:22:08;;;;;;;47.97;41.13;;;;;;;;;;5060184;28;20573;-53
2023/03/15 00:24:34;;;;;;;49.55;41.35;;;;;;;;;;5065018;28;20222;-53
2023/03/15 00:27:00;;;;;;;47.22;39.08;;;;;;;;;;5060938;28;20273;-53
2023/03/15 00:29:26;;;;;;;47.67;40.03;;;;;;;;;;5053364;28;20574;-53
2023/03/15 00:31:52;;;;;;;46.10;37.15;;;;;;;;;;5070456;28;20190;-53
2023/03/15 00:34:22;;;;;;;42.28;37.35;;;;;;;;;;5061313;28;20194;-53
2023/03/15 00:36:48;;;;;;;41.03;35.78;;;;;;;;;;5058214;28;20190;-53
2023/03/15 00:39:15;;;;;;;41.65;35.70;;;;;;;;;;5051769;28;20185;-53
2023/03/15 00:41:41;;;;;;;40.63;34.92;;;;;;;;;;5057133;28;20263;-53
2023/03/15 00:44:07;;;;;;;41.72;34.25;;;;;;;;;;5049857;28;20278;-53
2023/03/15 00:46:33;;;;;;;41.17;34.05;;;;;;;;;;5046563;28;20419;-53
2023/03/15 00:48:58;;;;;;;38.17;33.42;;;;;;;;;;5071319;28;20231;-53
2023/03/15 00:51:24;;;;;;;38.10;32.35;;;;;;;;;;5048810;28;20194;-53
2023/03/15 00:53:51;;;;;;;38.50;31.98;;;;;;;;;;5062467;28;20218;-53
2023/03/15 00:56:18;;;;;;;36.45;31.27;;;;;;;;;;5050834;28;20263;-53
2023/03/15 00:58:45;;;;;;;37.03;30.92;;;;;;;;;;5057389;28;20183;-53
2023/03/15 01:01:15;;;;;;;35.13;29.98;;;;;;;;;;5045067;28;20223;-53
2023/03/15 01:03:41;;;;;;;36.60;30.50;;;;;;;;;;5039973;28;20236;-53
2023/03/15 01:06:08;;;;;;;34.35;29.10;;;;;;;;;;5052413;28;20203;-53
2023/03/15 01:08:34;;;;;;;34.88;28.92;;;;;;;;;;5050514;28;20186;-53
2023/03/15 01:11:03;;;;;;;33.70;28.48;;;;;;;;;;5052301;28;20180;-53
2023/03/15 01:13:29;;;;;;;31.80;27.48;;;;;;;;;;5057310;28;20518;-53
2023/03/15 01:15:55;;;;;;;31.60;26.88;;;;;;;;;;5044066;28;20270;-53
2023/03/15 01:18:21;;;;;;;31.63;27.05;;;;;;;;;;5051687;28;20187;-53
2023/03/15 01:20:47;;;;;;;28.85;25.73;;;;;;;;;;5038605;28;20271;-53
2023/03/15 01:23:13;;;;;;;30.98;25.05;;;;;;;;;;5045049;28;20240;-53
2023/03/15 01:25:39;;;;;;;30.75;26.30;;;;;;;;;;5053756;28;20504;-53
2023/03/15 01:28:05;;;;;;;28.48;24.27;;;;;;;;;;5047318;28;20271;-53
2023/03/15 01:30:31;;;;;;;29.83;24.95;;;;;;;;;;5044444;28;20609;-53
2023/03/15 01:32:57;;;;;;;28.92;24.67;;;;;;;;;;5047568;28;20204;-53
2023/03/15 01:35:23;;;;;;;27.70;22.60;;;;;;;;;;5046578;28;20347;-53
2023/03/15 01:37:49;;;;;;;28.77;23.60;;;;;;;;;;5046691;28;20191;-53
2023/03/15 01:40:15;;;;;;;29.67;23.38;;;;;;;;;;5046210;28;20171;-53
2023/03/15 01:42:51;;;;;;;26.65;22.70;;;;;;;;;;5049849;28;20483;-53
2023/03/15 01:45:36;;;;;;;26.33;22.42;;;;;;;;;;5044319;28;20279;-53
2023/03/15 01:48:02;;;;;;;26.63;21.45;;;;;;;;;;5052559;28;20282;-53
2023/03/15 01:50:28;;;;;;;25.27;21.17;;;;;;;;;;5064779;28;20215;-53
2023/03/15 01:52:54;;;;;;;24.83;20.48;;;;;;;;;;5047780;28;20215;-53
2023/03/15 01:55:20;;;;;;;23.38;20.67;;;;;;;;;;5040010;28;20229;-53
2023/03/15 01:57:54;;;;;;;22.50;19.50;;;;;;;;;;5054733;28;20462;-53
2023/03/15 02:00:20;;;;;;;22.40;18.73;;;;;;;;;;5044057;28;20197;-53
2023/03/15 02:02:49;;;;;;;23.77;19.17;;;;;;;;;;5062857;28;20191;-53
2023/03/15 02:05:19;;;;;;;21.95;19.13;;;;;;;;;;5052158;28;20495;-53
2023/03/15 02:07:48;;;;;;;24.77;19.67;;;;;;;;;;5067212;28;20186;-53
2023/03/15 02:10:15;;;;;;;21.80;18.50;;;;;;;;;;5048874;28;20190;-53
2023/03/15 02:12:44;;;;;;;21.98;18.42;;;;;;;;;;5059567;28;20249;-53
2023/03/15 02:15:11;;;;;;;20.67;17.67;;;;;;;;;;5059800;28;20182;-53
2023/03/15 02:17:42;;;;;;;20.40;17.70;;;;;;;;;;5066305;28;20179;-53
2023/03/15 02:20:17;;;;;;;19.25;16.77;;;;;;;;;;5045830;28;20260;-53
2023/03/15 02:22:50;;;;;;;20.88;17.67;;;;;;;;;;5076930;28;20208;-53
2023/03/15 02:25:22;;;;;;;18.92;16.13;;;;;;;;;;5058223;28;20182;-52
2023/03/15 02:27:47;;;;;;;19.88;16.25;;;;;;;;;;5055412;28;20183;-52
2023/03/15 02:30:13;;;;;;;18.38;15.52;;;;;;;;;;5052355;28;20518;-52
2023/03/15 02:32:40;;;;;;;19.00;16.17;;;;;;;;;;5067866;28;20199;-52
2023/03/15 02:35:06;;;;;;;16.33;14.57;;;;;;;;;;5057627;28;20191;-52
2023/03/15 02:37:32;;;;;;;18.33;15.73;;;;;;;;;;5052886;28;20175;-52
2023/03/15 02:39:57;;;;;;;17.20;15.00;;;;;;;;;;5052683;28;20605;-52
2023/03/15 02:42:23;;;;;;;16.83;14.90;;;;;;;;;;5058145;28;20174;-52
2023/03/15 02:44:50;;;;;;;16.63;14.48;;;;;;;;;;5048659;28;20200;-52
2023/03/15 02:47:19;;;;;;;15.70;13.90;;;;;;;;;;5042323;28;20465;-52
2023/03/15 02:49:48;;;;;;;17.88;14.88;;;;;;;;;;5057522;28;20460;-52
2023/03/15 02:52:14;;;;;;;15.05;13.45;;;;;;;;;;5064367;28;20209;-52
2023/03/15 02:54:42;;;;;;;15.00;13.07;;;;;;;;;;5061259;28;20211;-51
2023/03/15 02:57:08;;;;;;;15.38;13.77;;;;;;;;;;5055381;28;20250;-52
2023/03/15 02:59:34;;;;;;;14.82;13.23;;;;;;;;;;5057881;28;20176;-52
2023/03/15 03:02:00;;;;;;;14.48;12.55;;;;;;;;;;5072711;28;20299;-52
2023/03/15 03:04:26;;;;;;;13.25;11.90;;;;;;;;;;5051949;28;20210;-52
2023/03/15 03:06:52;;;;;;;14.07;12.07;;;;;;;;;;5060932;28;20179;-52
2023/03/15 03:09:18;;;;;;;14.02;12.52;;;;;;;;;;5058864;28;20191;-52
2023/03/15 03:11:44;;;;;;;12.88;11.43;;;;;;;;;;5052498;28;20205;-52
2023/03/15 03:14:12;;;;;;;12.93;11.05;;;;;;;;;;5067892;28;20299;-52
2023/03/15 03:16:38;;;;;;;14.13;11.48;;;;;;;;;;5060138;28;20187;-52
2023/03/15 03:19:04;;;;;;;11.95;10.68;;;;;;;;;;5055422;28;20195;-52
2023/03/15 03:21:30;;;;;;;13.73;11.48;;;;;;;;;;5050358;28;20259;-52
2023/03/15 03:23:56;;;;;;;12.15;10.82;;;;;;;;;;5066509;28;20446;-52
2023/03/15 03:26:26;;;;;;;12.70;10.70;;;;;;;;;;5058641;28;20225;-52
2023/03/15 03:28:53;;;;;;;11.82;10.60;;;;;;;;;;5049054;28;20194;-52
2023/03/15 03:31:20;;;;;;;11.85;10.02;;;;;;;;;;5048343;28;20202;-52
2023/03/15 03:33:46;;;;;;;11.50;9.73;;;;;;;;;;5063262;28;20294;-52
2023/03/15 03:36:13;;;;;;;10.77;9.63;;;;;;;;;;5047454;28;20183;-52
2023/03/15 03:38:42;;;;;;;11.10;9.55;;;;;;;;;;5049879;28;20186;-52
2023/03/15 03:41:09;;;;;;;10.95;9.48;;;;;;;;;;5046345;28;20183;-52
2023/03/15 03:43:35;;;;;;;11.25;10.02;;;;;;;;;;5042350;28;20266;-52
2023/03/15 03:46:01;;;;;;;10.25;9.15;;;;;;;;;;5040616;28;20489;-52
2023/03/15 03:48:27;;;;;;;10.73;9.35;;;;;;;;;;5057539;28;20464;-52
2023/03/15 03:50:53;;;;;;;9.85;8.23;;;;;;;;;;5053303;28;20326;-52
2023/03/15 03:53:19;;;;;;;10.55;9.45;;;;;;;;;;5050189;28;20209;-52
2023/03/15 03:55:45;;;;;;;9.10;8.20;;;;;;;;;;5053328;28;20186;-52
2023/03/15 03:58:11;;;;;;;9.38;8.35;;;;;;;;;;5060829;28;20209;-52
2023/03/15 04:00:38;;;;;;;10.18;8.50;;;;;;;;;;5053142;28;20191;-52
2023/03/15 04:03:04;;;;;;;8.50;7.60;;;;;;;;;;5049265;28;20183;-52
2023/03/15 04:05:30;;;;;;;8.98;7.65;;;;;;;;;;5043412;28;20184;-52
2023/03/15 04:07:56;;;;;;;10.35;8.02;;;;;;;;;;5044966;28;20238;-52
2023/03/15 04:10:25;;;;;;;8.35;7.45;;;;;;;;;;5058750;28;20179;-52
2023/03/15 04:12:52;;;;;;;9.20;7.60;;;;;;;;;;5064136;28;20205;-52
2023/03/15 04:15:18;;;;;;;8.20;7.03;;;;;;;;;;5053957;28;20175;-52
2023/03/15 04:17:45;;;;;;;7.72;6.93;;;;;;;;;;5067687;28;20317;-52
2023/03/15 04:20:11;;;;;;;7.93;6.95;;;;;;;;;;5058051;28;20189;-52
2023/03/15 04:22:38;;;;;;;8.07;6.57;;;;;;;;;;5064152;28;20183;-52
2023/03/15 04:25:04;;;;;;;7.45;6.55;;;;;;;;;;5054469;28;20585;-52
2023/03/15 04:27:33;;;;;;;7.65;6.70;;;;;;;;;;5060868;28;20171;-52
2023/03/15 04:30:04;;;;;;;7.05;6.35;;;;;;;;;;5057129;28;20225;-54
2023/03/15 04:32:29;;;;;;;7.28;6.20;;;;;;;;;;5057879;28;20197;-52
2023/03/15 04:34:55;;;;;;;7.03;6.20;;;;;;;;;;5046354;28;20199;-52
2023/03/15 04:37:21;;;;;;;7.25;6.10;;;;;;;;;;5057379;28;20183;-52
2023/03/15 04:39:47;;;;;;;6.90;5.85;;;;;;;;;;5048749;28;20184;-52
2023/03/15 04:42:13;;;;;;;7.82;6.35;;;;;;;;;;5057572;28;20175;-52
2023/03/15 04:44:39;;;;;;;8.50;5.70;;;;;;;;;;5046492;28;20207;-52
2023/03/15 04:47:05;;;;;;;6.75;5.60;;;;;;;;;;5059082;28;20194;-52
2023/03/15 04:49:31;;;;;;;10.23;5.85;;;;;;;;;;5045379;28;20270;-52
2023/03/15 04:51:57;;;;;;;10.80;6.35;;;;;;;;;;5056604;28;20183;-52
2023/03/15 04:54:23;;;;;;;7.95;5.90;;;;;;;;;;5050198;28;20222;-52
2023/03/15 04:56:49;;;;;;;7.68;5.80;;;;;;;;;;5052482;28;20168;-52
2023/03/15 04:59:16;;;;;;;8.88;5.80;;;;;;;;;;5046083;28;20191;-52
2023/03/15 05:01:41;;;;;;;8.38;6.03;;;;;;;;;;5045404;28;20200;-52
2023/03/15 05:04:07;;;;;;;6.75;5.68;;;;;;;;;;5040129;28;20183;-52
2023/03/15 05:06:33;;;;;;;8.68;5.80;;;;;;;;;;5040571;28;20187;-52
2023/03/15 05:08:59;;;;;;;11.05;5.78;;;;;;;;;;5043201;28;20187;-52
2023/03/15 05:11:25;;;;;;;9.15;5.55;;;;;;;;;;5046442;28;20236;-51
2023/03/15 05:13:52;;;;;;;8.20;5.35;;;;;;;;;;5054085;28;20214;-51
2023/03/15 05:16:18;;;;;;;7.97;5.15;;;;;;;;;;5052853;28;20206;-51
2023/03/15 05:18:44;;;;;;;6.30;4.55;;;;;;;;;;5046092;28;20218;-51
2023/03/15 05:21:11;;;;;;;7.75;5.28;;;;;;;;;;5049772;28;20187;-51
2023/03/15 05:23:37;;;;;;;8.90;4.97;;;;;;;;;;5048559;28;20183;-51
2023/03/15 05:26:03;;;;;;;9.30;5.22;;;;;;;;;;5052371;28;20187;-52
2023/03/15 05:28:30;;;;;;;8.30;5.10;;;;;;;;;;5048717;28;20186;-51
2023/03/15 05:30:56;;;;;;;5.88;4.93;;;;;;;;;;5052666;28;20578;-51
2023/03/15 05:33:23;;;;;;;8.05;4.90;;;;;;;;;;5043052;28;20204;-51
2023/03/15 05:35:51;;;;;;;9.05;5.00;;;;;;;;;;5034646;28;20203;-52
2023/03/15 05:38:17;;;;;;;5.85;4.47;;;;;;;;;;5044439;28;20606;-52
2023/03/15 05:40:44;;;;;;;9.15;5.07;;;;;;;;;;5042491;28;20179;-52
2023/03/15 05:43:10;;;;;;;8.02;5.25;;;;;;;;;;5056537;28;20188;-51
2023/03/15 05:45:36;;;;;;;9.27;4.82;;;;;;;;;;5041912;28;20201;-51
2023/03/15 05:48:03;;;;;;;7.75;4.32;;;;;;;;;;5065709;28;20483;-51
2023/03/15 05:50:29;;;;;;;7.05;4.65;;;;;;;;;;5052525;28;20293;-52
2023/03/15 05:52:55;;;;;;;5.78;4.28;;;;;;;;;;5062107;28;20214;-51
2023/03/15 05:55:21;;;;;;;8.95;4.93;;;;;;;;;;5052846;28;20163;-52
2023/03/15 05:57:47;;;;;;;7.25;4.50;;;;;;;;;;5040564;28;20206;-52
2023/03/15 06:00:15;;;;;;;7.60;4.45;;;;;;;;;;5047336;28;20446;-52
2023/03/15 06:02:41;;;;;;;6.10;3.90;;;;;;;;;;5040229;28;20222;-52
2023/03/15 06:05:07;;;;;;;8.85;4.65;;;;;;;;;;5043347;28;20552;-51
2023/03/15 06:07:33;;;;;;;6.80;3.97;;;;;;;;;;5050579;28;20183;-51
2023/03/15 06:09:59;;;;;;;7.53;4.22;;;;;;;;;;5049751;28;20213;-51
2023/03/15 06:12:25;;;;;;;8.02;3.90;;;;;;;;;;5068704;28;20189;-51
2023/03/15 06:14:51;;;;;;;6.43;4.18;;;;;;;;;;5052754;28;20304;-52
2023/03/15 06:17:16;;;;;;;6.35;3.90;;;;;;;;;;5053711;28;20565;-52
2023/03/15 06:19:42;;;;;;;6.20;4.10;;;;;;;;;;5051248;28;20187;-52
2023/03/15 06:22:08;;;;;;;5.50;3.80;;;;;;;;;;5046095;28;20206;-52
2023/03/15 06:24:34;;;;;;;6.80;3.95;;;;;;;;;;5047979;28;20195;-52
2023/03/15 06:27:00;;;;;;;5.97;3.85;;;;;;;;;;5046806;28;20196;-52
2023/03/15 06:29:26;;;;;;;5.43;3.55;;;;;;;;;;5047840;28;20741;-51
2023/03/15 06:31:52;;;;;;;5.70;3.92;;;;;;;;;;5046139;28;20187;-52
2023/03/15 06:34:18;;;;;;;9.13;3.65;;;;;;;;;;5046175;28;20321;-52
2023/03/15 06:36:44;;;;;;;5.15;3.63;;;;;;;;;;5047862;28;20180;-51
2023/03/15 06:39:11;;;;;;;6.05;3.47;;;;;;;;;;5059194;28;20469;-51
2023/03/15 06:41:37;;;;;;;4.07;3.13;;;;;;;;;;5040937;28;20482;-51
2023/03/15 06:44:03;;;;;;;4.65;3.08;;;;;;;;;;5057981;28;20191;-51
2023/03/15 06:46:28;;;;;;;5.60;3.38;;;;;;;;;;5043649;28;20375;-51
2023/03/15 06:48:54;;;;;;;6.28;3.08;;;;;;;;;;5047720;28;20195;-51
2023/03/15 06:51:20;;;;;;;4.85;3.05;;;;;;;;;;5046205;28;20184;-52
2023/03/15 06:53:46;;;;;;;4.97;3.30;;;;;;;;;;5061502;28;20214;-52
2023/03/15 06:56:12;;;;;;;4.57;3.05;;;;;;;;;;5061198;28;20179;-52
2023/03/15 06:58:38;;;;;;;4.95;3.20;;;;;;;;;;5051749;28;20253;-53
2023/03/15 07:01:04;;;;;;;4.50;3.05;;;;;;;;;;5042952;28;20288;-52
2023/03/15 07:03:30;;;;;;;3.95;2.45;;;;;;;;;;5050857;28;20823;-53
2023/03/15 07:05:56;;;;;;;5.25;2.80;;;;;;;;;;5050184;28;20332;-52
2023/03/15 07:08:22;;;;;;;4.15;3.10;;;;;;;;;;5056983;28;20464;-52
2023/03/15 07:10:49;;;;;;;3.67;2.92;;;;;;;;;;5046390;28;20441;-52
2023/03/15 07:13:15;;;;;;;3.92;2.60;;;;;;;;;;5054740;28;20210;-52
2023/03/15 07:15:41;;;;;;;4.32;2.90;;;;;;;;;;5047772;28;20271;-52
2023/03/15 07:18:07;;;;;;;3.50;2.60;;;;;;;;;;5060249;28;20278;-52
2023/03/15 07:20:33;;;;;;;6.20;3.00;;;;;;;;;;5057760;28;20265;-52
2023/03/15 07:22:59;;;;;;;4.55;2.55;;;;;;;;;;5062107;28;20190;-52
2023/03/15 07:25:25;;;;;;;4.20;2.63;;;;;;;;;;5057994;28;20179;-52
2023/03/15 07:27:51;;;;;;;4.97;2.50;;;;;;;;;;5051900;28;20174;-52
2023/03/15 07:30:18;;;;;;;3.72;2.75;;;;;;;;;;5056022;28;20218;-52
2023/03/15 07:32:44;;;;;;;4.35;2.65;;;;;;;;;;5056890;28;20188;-52
2023/03/15 07:35:10;;;;;;;3.10;2.47;;;;;;;;;;5056007;28;20426;-52
2023/03/15 07:37:36;;;;;;;2.95;2.08;;;;;;;;;;5036713;28;20183;-52
2023/03/15 07:40:02;;;;;;;3.78;2.33;;;;;;;;;;5058098;28;20186;-52
2023/03/15 07:42:28;;;;;;;3.20;2.50;;;;;;;;;;5044063;28;20175;-52
2023/03/15 07:44:54;;;;;;;2.92;2.35;;;;;;;;;;5043194;28;20248;-52
2023/03/15 07:47:19;;;;;;;3.20;2.30;;;;;;;;;;5039508;28;20191;-52
2023/03/15 07:49:45;;;;;;;3.17;2.10;;;;;;;;;;5036621;28;20266;-52
2023/03/15 07:52:12;;;;;;;3.17;2.10;;;;;;;;;;5063314;28;20183;-52
2023/03/15 07:54:37;;;;;;;3.45;1.83;;;;;;;;;;5046305;28;20697;-52
2023/03/15 07:57:04;;;;;;;2.95;2.10;;;;;;;;;;5039911;28;20183;-52
2023/03/15 07:59:29;;;;;;;2.90;2.13;;;;;;;;;;5045644;28;20230;-52
2023/03/15 08:01:55;;;;;;;3.95;2.40;;;;;;;;;;5056739;28;21014;-52
2023/03/15 08:04:21;;;;;;;2.20;2.00;;;;;;;;;;5055831;28;20436;-52
2023/03/15 08:06:47;;;;;;;2.45;1.98;;;;;;;;;;5054740;28;20168;-51
2023/03/15 08:09:13;;;;;;;2.80;2.13;;;;;;;;;;5066358;28;20193;-51
2023/03/15 08:11:39;;;;;;;3.20;2.00;;;;;;;;;;5053263;28;20183;-51
2023/03/15 08:14:05;;;;;;;4.05;2.28;;;;;;;;;;5062947;28;20329;-51
2023/03/15 08:16:31;;;;;;;3.83;2.20;;;;;;;;;;5060500;28;20309;-50
2023/03/15 08:18:57;;;;;;;2.92;1.77;;;;;;;;;;5055035;28;20195;-50
2023/03/15 08:21:23;;;;;;;2.35;1.95;;;;;;;;;;5047353;28;20182;-49
2023/03/15 08:23:52;;;;;;;3.75;2.30;;;;;;;;;;5072567;28;20193;-50
2023/03/15 08:26:17;;;;;;;3.92;2.08;;;;;;;;;;5054035;28;20206;-51
2023/03/15 08:28:43;;;;;;;2.40;1.80;;;;;;;;;;5064153;28;20191;-51
2023/03/15 08:31:12;;;;;;;3.55;1.92;;;;;;;;;;5046224;28;20243;-52
2023/03/15 08:33:38;;;;;;;2.58;1.90;;;;;;;;;;5053952;28;20565;-53
2023/03/15 08:36:04;;;;;;;3.30;2.15;;;;;;;;;;5051505;28;20183;-54
2023/03/15 08:38:30;;;;;;;3.15;1.88;;;;;;;;;;5045808;28;20176;-53
2023/03/15 08:40:56;;;;;;;2.00;1.80;;;;;;;;;;5063362;28;20182;-53
2023/03/15 08:43:22;;;;;;;2.97;1.80;;;;;;;;;;5048284;28;20539;-54
2023/03/15 08:45:49;;;;;;;2.05;1.70;;;;;;;;;;5059573;28;20218;-54
2023/03/15 08:48:16;;;;;;;3.08;1.70;;;;;;;;;;5050290;28;20191;-54
2023/03/15 08:50:42;;;;;;;3.42;1.40;;;;;;;;;;5054608;28;20519;-54
2023/03/15 08:53:09;;;;;;;1.98;1.45;;;;;;;;;;5060712;28;20453;-54
2023/03/15 08:55:36;;;;;;;2.92;2.08;;;;;;;;;;5074189;28;20167;-54
2023/03/15 08:58:02;;;;;;;3.00;1.75;;;;;;;;;;5058658;28;20186;-54
2023/03/15 09:00:28;;;;;;;3.38;1.75;;;;;;;;;;5063947;28;20178;-53
2023/03/15 09:02:54;;;;;;;3.53;1.67;;;;;;;;;;5045405;28;20501;-53
2023/03/15 09:05:21;;;;;;;2.35;1.70;;;;;;;;;;5050218;28;20213;-54
2023/03/15 09:07:47;;;;;;;2.10;1.50;;;;;;;;;;5050878;28;20186;-53
2023/03/15 09:10:14;;;;;;;2.67;1.77;;;;;;;;;;5057204;28;20641;-53
2023/03/15 09:12:43;;;;;;;2.60;1.67;;;;;;;;;;5053680;28;20225;-53
2023/03/15 09:15:10;;;;;;;2.85;1.75;;;;;;;;;;5073284;28;20202;-53
2023/03/15 09:17:37;;;;;;;2.72;1.83;;;;;;;;;;5059708;28;20185;-53
2023/03/15 09:20:06;;;;;;;2.20;1.60;;;;;;;;;;5061789;28;20444;-53
2023/03/15 09:22:32;;;;;;;1.98;1.65;;;;;;;;;;5051475;28;20585;-53
2023/03/15 09:24:58;;;;;;;2.72;1.80;;;;;;;;;;5059414;28;20191;-53
2023/03/15 09:27:24;;;;;;;2.58;1.70;;;;;;;;;;5059830;28;20257;-53
2023/03/15 09:29:50;;;;;;;1.67;1.27;;;;;;;;;;5074242;28;20241;-53
2023/03/15 09:32:16;;;;;;;3.05;1.65;;;;;;;;;;5048772;28;20469;-53
2023/03/15 09:34:42;;;;;;;2.17;1.27;;;;;;;;;;5059084;28;20217;-54
2023/03/15 09:37:08;;;;;;;1.77;1.48;;;;;;;;;;5044844;28;20222;-53
2023/03/15 09:39:34;;;;;;;1.67;1.20;;;;;;;;;;5060052;28;20184;-53
2023/03/15 09:42:01;;;;;;;2.53;1.50;;;;;;;;;;5050309;28;20182;-53
2023/03/15 09:44:34;;;;;;;1.80;1.23;;;;;;;;;;5073973;28;20171;-53
2023/03/15 09:47:25;;;;;;;2.17;1.55;;;;;;;;;;5059254;28;20212;-53
2023/03/15 09:49:58;;;;;;;2.63;1.50;;;;;;;;;;5060618;28;20218;-53
2023/03/15 09:52:38;;;;;;;2.67;1.42;;;;;;;;;;5061748;28;20224;-53
2023/03/15 09:55:10;;;;;;;2.50;1.40;;;;;;;;;;5065962;28;20183;-53
2023/03/15 09:57:40;;;;;;;1.60;1.38;;;;;;;;;;5061701;28;20593;-53
2023/03/15 10:00:10;;;;;;;1.80;1.25;;;;;;;;;;5043261;28;20422;-53
2023/03/15 10:02:39;;;;;;;1.40;1.27;;;;;;;;;;5041413;28;20255;-53
2023/03/15 10:05:08;;;;;;;2.00;1.38;;;;;;;;;;5051650;28;20294;-53
2023/03/15 10:07:34;;;;;;;2.80;1.45;;;;;;;;;;5049648;28;20201;-53
2023/03/15 10:10:03;;;;;;;1.40;1.30;;;;;;;;;;5067198;28;20227;-53
2023/03/15 10:12:39;;;;;;;1.52;1.20;;;;;;;;;;5052989;28;20503;-53
2023/03/15 10:15:08;;;;;;;1.25;1.15;;;;;;;;;;5054078;28;20178;-53
2023/03/15 10:17:34;;;;;;;2.28;1.50;;;;;;;;;;5063526;28;20804;-53
2023/03/15 10:20:08;;;;;;;1.38;1.10;;;;;;;;;;5054410;28;20191;-53
2023/03/15 10:22:38;;;;;;;1.90;1.50;;;;;;;;;;5058939;28;20221;-53
2023/03/15 10:25:14;;;;;;;1.90;1.20;;;;;;;;;;5071960;28;20560;-53
2023/03/15 10:27:47;;;;;;;0.90;0.90;;;;;;;;;;5059584;28;20453;-54
2023/03/15 10:30:15;;;;;;;1.52;1.10;;;;;;;;;;5041106;28;20439;-53
2023/03/15 10:32:43;;;;;;;1.35;1.10;;;;;;;;;;5067879;28;20182;-53
2023/03/15 10:35:14;;;;;;;2.72;1.63;;;;;;;;;;5068819;28;20269;-54
2023/03/15 10:37:41;;;;;;;3.15;1.20;;;;;;;;;;5064235;28;20228;-54
2023/03/15 10:40:14;;;;;;;1.55;1.05;;;;;;;;;;5053515;28;20179;-54
2023/03/15 10:42:40;;;;;;;1.98;1.33;;;;;;;;;;5064196;28;20171;-54
2023/03/15 10:45:12;;;;;;;1.52;0.98;;;;;;;;;;5075382;28;20183;-54
2023/03/15 10:47:44;;;;;;;1.95;1.42;;;;;;;;;;5067004;28;20243;-54
2023/03/15 10:50:16;;;;;;;1.80;1.30;;;;;;;;;;5052842;28;20182;-54
2023/03/15 10:52:43;;;;;;;1.63;1.17;;;;;;;;;;5043078;28;20176;-53
2023/03/15 10:55:14;;;;;;;1.27;1.10;;;;;;;;;;5066807;28;20175;-53
2023/03/15 10:57:50;;;;;;;1.60;1.20;;;;;;;;;;5047984;28;20187;-53
2023/03/15 11:00:19;;;;;;;1.45;1.33;;;;;;;;;;5050105;28;20178;-53
2023/03/15 11:02:49;;;;;;;1.70;1.10;;;;;;;;;;5054392;28;20276;-53
2023/03/15 11:05:16;;;;;;;1.30;1.10;;;;;;;;;;5066252;28;20171;-53
2023/03/15 11:07:55;;;;;;;1.27;1.17;;;;;;;;;;5062672;28;20192;-53
2023/03/15 11:10:22;;;;;;;2.08;1.10;;;;;;;;;;5047230;28;20185;-53
2023/03/15 11:12:48;;;;;;;1.23;1.13;;;;;;;;;;5037912;28;20179;-53
2023/03/15 11:15:14;;;;;;;1.92;1.10;;;;;;;;;;5058086;28;20524;-53
2023/03/15 11:17:47;;;;;;;0.98;0.85;;;;;;;;;;5048048;28;20179;-53
2023/03/15 11:20:30;;;;;;;2.65;1.10;;;;;;;;;;5055405;28;20214;-53
2023/03/15 11:22:58;;;;;;;1.73;1.25;;;;;;;;;;5052023;28;20297;-53
2023/03/15 11:25:29;;;;;;;1.58;1.08;;;;;;;;;;5058437;28;20176;-53
2023/03/15 11:27:55;;;;;;;2.08;1.17;;;;;;;;;;5047383;28;20211;-53
2023/03/15 11:30:23;;;;;;;1.60;1.02;;;;;;;;;;5042059;28;20273;-53
2023/03/15 11:32:50;;;;;;;1.77;1.35;;;;;;;;;;5044565;28;20186;-53
2023/03/15 11:35:31;;;;;;;1.90;1.00;;;;;;;;;;5047343;28;20226;-53
2023/03/15 11:38:02;;;;;;;1.25;1.08;;;;;;;;;;5054519;28;20206;-53
2023/03/15 11:40:31;;;;;;;1.38;0.90;;;;;;;;;;5046856;28;20576;-54
2023/03/15 11:43:00;;;;;;;0.93;0.90;;;;;;;;;;5044884;28;20182;-54
2023/03/15 11:45:52;;;;;;;1.75;1.10;;;;;;;;;;5053164;28;20769;-54
2023/03/15 11:48:28;;;;;;;1.38;0.98;;;;;;;;;;5044926;28;20187;-54
2023/03/15 11:50:54;;;;;;;5.50;1.13;;;;;;;;;;5051943;28;20193;-54
2023/03/15 11:53:22;;;;;;;3.28;1.08;;;;;;;;;;5061421;28;20285;-54
2023/03/15 11:55:52;;;;;;;1.05;0.95;;;;;;;;;;5037715;28;20180;-54
2023/03/15 11:58:29;;;;;;;1.00;0.90;;;;;;;;;;5046268;28;20166;-54
2023/03/15 12:01:00;;;;;;;1.27;1.05;;;;;;;;;;5037995;28;20297;-54
2023/03/15 12:03:40;;;;;;;2.47;1.10;;;;;;;;;;5054992;28;20303;-54
2023/03/15 12:06:10;;;;;;;1.27;0.95;;;;;;;;;;5057624;28;20211;-54
2023/03/15 12:08:41;;;;;;;0.88;0.80;;;;;;;;;;5052574;28;20183;-54
2023/03/15 12:11:10;;;;;;;1.27;1.00;;;;;;;;;;5042707;28;20204;-55
2023/03/15 12:13:36;;;;;;;1.20;0.93;;;;;;;;;;5065540;28;20217;-55
2023/03/15 12:16:05;;;;;;;1.13;0.80;;;;;;;;;;5061291;28;20184;-55
2023/03/15 12:18:44;;;;;;;0.80;0.80;;;;;;;;;;5056533;28;20606;-54
2023/03/15 12:21:12;;;;;;;1.10;1.00;;;;;;;;;;5063543;28;20296;-54
2023/03/15 12:23:43;;;;;;;0.80;0.80;;;;;;;;;;5066589;28;20232;-54
2023/03/15 12:26:13;;;;;;;1.52;1.10;;;;;;;;;;5062350;28;20190;-54
2023/03/15 12:28:40;;;;;;;1.30;0.80;;;;;;;;;;5053247;28;20192;-54
2023/03/15 12:31:14;;;;;;;1.65;1.23;;;;;;;;;;5065441;28;20563;-54
2023/03/15 12:33:44;;;;;;;1.40;0.95;;;;;;;;;;5057161;28;20305;-54
2023/03/15 12:36:17;;;;;;;0.88;0.88;;;;;;;;;;5062692;28;20513;-55
2023/03/15 12:38:52;;;;;;;1.50;1.10;;;;;;;;;;5055425;28;20185;-55
2023/03/15 12:41:36;;;;;;;0.95;0.68;;;;;;;;;;5059187;28;20185;-55
2023/03/15 12:44:21;;;;;;;1.02;0.80;;;;;;;;;;5059059;28;20559;-55
2023/03/15 12:46:47;;;;;;;1.23;0.85;;;;;;;;;;5040659;28;20183;-54
2023/03/15 12:49:13;;;;;;;1.00;0.85;;;;;;;;;;5066872;28;20197;-54
2023/03/15 12:51:57;;;;;;;1.10;1.00;;;;;;;;;;5056966;28;20301;-54
2023/03/15 12:54:25;;;;;;;0.75;0.75;;;;;;;;;;5059087;28;20548;-54
2023/03/15 12:56:55;;;;;;;0.95;0.70;;;;;;;;;;5046836;28;20266;-54
2023/03/15 12:59:27;;;;;;;0.80;0.80;;;;;;;;;;5051025;28;20188;-54
2023/03/15 13:01:53;;;;;;;0.75;0.75;;;;;;;;;;5044420;28;20253;-55
2023/03/15 13:04:20;;;;;;;1.35;0.80;;;;;;;;;;5041997;28;20266;-54
2023/03/15 13:06:49;;;;;;;1.02;0.70;;;;;;;;;;5058213;28;20183;-54
2023/03/15 13:09:37;;;;;;;1.13;0.80;;;;;;;;;;5057972;28;20508;-54
2023/03/15 13:12:09;;;;;;;0.93;0.73;;;;;;;;;;5047834;28;20325;-54
2023/03/15 13:14:43;;;;;;;0.70;0.70;;;;;;;;;;5046901;28;20653;-54
2023/03/15 13:17:16;;;;;;;0.80;0.80;;;;;;;;;;5056361;28;20222;-54
2023/03/15 13:19:46;;;;;;;1.75;0.68;;;;;;;;;;5044149;28;20544;-53
2023/03/15 13:22:26;;;;;;;3.33;1.02;;;;;;;;;;5037777;28;20190;-52
2023/03/15 13:25:00;;;;;;;2.67;0.85;;;;;;;;;;5035692;28;20183;-52
2023/03/15 13:27:35;;;;;;;1.10;0.70;;;;;;;;;;5054466;28;20183;-52
2023/03/15 13:30:03;;;;;;;0.60;0.60;;;;;;;;;;5050341;28;20218;-53
2023/03/15 13:32:29;;;;;;;0.77;0.52;;;;;;;;;;5045884;28;20248;-52
2023/03/15 13:34:56;;;;;;;1.38;0.80;;;;;;;;;;5051093;28;20630;-52
2023/03/15 13:37:24;;;;;;;0.85;0.75;;;;;;;;;;5051583;28;20175;-52
2023/03/15 13:40:05;;;;;;;1.55;1.05;;;;;;;;;;5044591;28;20174;-52
2023/03/15 13:42:31;;;;;;;1.23;0.80;;;;;;;;;;5045205;28;20187;-51
2023/03/15 13:45:10;;;;;;;1.50;0.70;;;;;;;;;;5052400;28;20477;-51
2023/03/15 13:47:36;;;;;;;1.40;0.50;;;;;;;;;;5043107;28;20187;-51
2023/03/15 13:50:05;;;;;;;1.15;0.80;;;;;;;;;;5046345;28;20212;-51
2023/03/15 13:52:31;;;;;;;2.10;0.95;;;;;;;;;;5047755;28;20182;-51
2023/03/15 13:54:58;;;;;;;2.65;0.88;;;;;;;;;;5053039;28;20225;-51
2023/03/15 13:57:24;;;;;;;0.80;0.73;;;;;;;;;;5050577;28;20213;-51
2023/03/15 13:59:52;;;;;;;0.82;0.82;;;;;;;;;;5058393;28;20221;-51
2023/03/15 14:02:31;;;;;;;1.83;0.98;;;;;;;;;;5061013;28;20181;-51
2023/03/15 14:04:59;;;;;;;0.98;0.85;;;;;;;;;;5066738;28;20181;-50
2023/03/15 14:07:44;;;;;;;1.35;0.90;;;;;;;;;;5047863;28;20600;-51
2023/03/15 14:10:10;;;;;;;0.80;0.60;;;;;;;;;;5050454;28;20209;-51
2023/03/15 14:12:36;;;;;;;1.55;0.80;;;;;;;;;;5052436;28;20174;-50
2023/03/15 14:15:02;;;;;;;1.92;0.82;;;;;;;;;;5050598;28;20221;-51
2023/03/15 14:17:29;;;;;;;2.60;0.70;;;;;;;;;;5060023;28;20232;-50
2023/03/15 14:19:56;;;;;;;1.98;0.98;;;;;;;;;;5053725;28;20270;-50
2023/03/15 14:22:22;;;;;;;1.65;0.88;;;;;;;;;;5069171;28;20182;-51
2023/03/15 14:24:50;;;;;;;1.00;0.90;;;;;;;;;;5065600;28;20476;-50
2023/03/15 14:27:19;;;;;;;1.15;1.00;;;;;;;;;;5049528;28;20191;-51
2023/03/15 14:29:53;;;;;;;0.77;0.70;;;;;;;;;;5046142;28;20195;-50
2023/03/15 14:32:25;;;;;;;0.60;0.60;;;;;;;;;;5044909;28;20425;-51
2023/03/15 14:34:56;;;;;;;1.85;0.85;;;;;;;;;;5048578;28;20213;-50
2023/03/15 14:37:51;;;;;;;1.38;0.65;;;;;;;;;;5042986;28;20262;-50
2023/03/15 14:40:20;;;;;;;1.08;0.73;;;;;;;;;;5055855;28;20553;-50